Time;durP1;ratioP1;P1;durP2;ratioP2;P2;SDS_P1;SDS_P2;PMS_P1;PMS_P2;Temp;Humidity;BMP_temperature;BMP_pressure;BME280_temperature;BME280_humidity;BME280_pressure;Samples;Min_cycle;Max_cycle;Signal;HPM_P1;HPM_P2
2022/07/15 00:02:22;;;;;;;11.02;1.80;;;13.50;99.50;;;;;;5075380;28;20040;-47
2022/07/15 00:04:48;;;;;;;10.95;1.83;;;14.20;99.60;;;;;;5075964;28;20062;-48
2022/07/15 00:07:14;;;;;;;9.77;1.50;;;13.40;99.90;;;;;;5075832;28;20036;-48
2022/07/15 00:12:25;;;;;;;17.48;2.55;;;14.20;99.90;;;;;;5075454;28;20696;-44
2022/07/15 00:14:51;;;;;;;10.13;1.65;;;13.50;99.90;;;;;;5075193;28;20492;-46
2022/07/15 00:17:17;;;;;;;9.27;1.60;;;13.80;99.90;;;;;;5090384;28;20097;-45
2022/07/15 00:19:42;;;;;;;12.15;1.90;;;13.60;99.90;;;;;;5076663;28;21190;-47
2022/07/15 00:22:11;;;;;;;10.02;1.90;;;14.50;99.90;;;;;;5075526;28;20044;-48
2022/07/15 00:24:37;;;;;;;6.80;1.60;;;14.10;99.90;;;;;;5075256;28;20051;-48
2022/07/15 00:27:04;;;;;;;10.02;1.73;;;13.40;99.90;;;;;;5074665;28;20082;-46
2022/07/15 00:29:31;;;;;;;12.48;1.80;;;13.60;99.80;;;;;;5075348;28;20051;-48
2022/07/15 00:31:57;;;;;;;9.20;1.63;;;13.50;99.90;;;;;;5075730;28;20024;-49
2022/07/15 00:34:23;;;;;;;10.05;1.80;;;13.60;99.90;;;;;;5075743;28;20408;-48
2022/07/15 00:36:49;;;;;;;10.57;1.70;;;13.90;99.90;;;;;;5075466;28;20032;-48
2022/07/15 00:39:16;;;;;;;9.43;1.75;;;14.30;99.90;;;;;;5073617;28;20062;-46
2022/07/15 00:41:42;;;;;;;10.43;1.67;;;13.20;99.90;;;;;;5074245;28;20056;-48
2022/07/15 00:44:11;;;;;;;10.13;1.73;;;13.90;99.90;;;;;;5075195;28;20085;-48
2022/07/15 00:46:39;;;;;;;12.63;1.65;;;13.30;99.90;;;;;;5075311;28;20252;-47
2022/07/15 00:49:07;;;;;;;7.50;1.65;;;13.20;99.90;;;;;;5056837;28;20044;-47
2022/07/15 00:51:43;;;;;;;12.23;1.83;;;12.90;99.90;;;;;;5075336;28;20070;-48
2022/07/15 00:54:13;;;;;;;8.77;1.90;;;12.70;99.90;;;;;;5075299;28;20563;-47
2022/07/15 00:56:45;;;;;;;10.52;1.77;;;10.80;99.90;;;;;;5074778;28;20036;-46
2022/07/15 00:59:11;;;;;;;;;;;14.10;99.90;;;;;;5075241;28;20036;-44
2022/07/15 01:01:37;;;;;;;10.10;1.73;;;12.80;99.90;;;;;;5073693;28;21236;-48
2022/07/15 01:04:04;;;;;;;9.18;1.98;;;13.30;99.90;;;;;;5076380;28;20047;-48
2022/07/15 01:06:30;;;;;;;9.73;1.70;;;12.70;99.90;;;;;;5074273;28;20531;-48
2022/07/15 01:08:56;;;;;;;8.57;2.13;;;13.30;99.90;;;;;;5072422;28;20036;-44
2022/07/15 01:11:22;;;;;;;9.95;2.10;;;14.80;99.90;;;;;;5074109;28;20036;-47
2022/07/15 01:13:48;;;;;;;9.05;1.70;;;14.70;99.90;;;;;;5074923;28;20039;-46
2022/07/15 01:16:15;;;;;;;11.02;1.92;;;12.60;99.90;;;;;;5075770;28;20094;-48
2022/07/15 01:18:41;;;;;;;9.75;1.65;;;12.60;99.90;;;;;;5074617;28;20106;-47
2022/07/15 01:21:07;;;;;;;8.95;1.65;;;12.80;99.90;;;;;;5074269;28;20070;-48
2022/07/15 01:23:40;;;;;;;10.75;1.70;;;12.70;99.90;;;;;;5074577;28;20460;-49
2022/07/15 01:26:11;;;;;;;9.25;2.47;;;13.90;99.90;;;;;;5074082;28;20032;-48
2022/07/15 01:28:37;;;;;;;10.40;1.70;;;12.70;99.90;;;;;;5073997;28;20058;-48
2022/07/15 01:31:04;;;;;;;8.93;1.98;;;14.60;99.90;;;;;;5074866;28;20032;-47
2022/07/15 01:33:32;;;;;;;9.00;1.63;;;12.70;99.90;;;;;;5073538;28;20043;-46
2022/07/15 01:35:58;;;;;;;10.60;2.05;;;12.60;99.90;;;;;;5074599;28;20047;-47
2022/07/15 01:38:25;;;;;;;10.45;1.58;;;12.60;99.90;;;;;;5074009;28;20045;-48
2022/07/15 01:40:51;;;;;;;11.50;1.88;;;12.60;99.90;;;;;;5074844;28;20059;-47
2022/07/15 01:43:17;;;;;;;8.90;1.67;;;13.60;99.90;;;;;;5074081;28;20044;-48
2022/07/15 01:45:44;;;;;;;8.00;1.90;;;12.50;99.90;;;;;;5075384;28;20101;-47
2022/07/15 01:49:21;;;;;;;8.40;1.50;;;12.70;99.90;;;;;;5076122;28;20044;-43
2022/07/15 01:51:00;;;;;;;12.75;1.55;;;14.40;99.90;;;;;;5059561;28;20123;-48
2022/07/15 01:53:27;;;;;;;9.48;2.05;;;13.20;99.90;;;;;;5074150;28;20173;-44
2022/07/15 01:55:53;;;;;;;10.82;1.42;;;12.70;99.90;;;;;;5074509;28;20044;-43
2022/07/15 01:58:21;;;;;;;7.38;1.17;;;12.50;99.90;;;;;;5073708;28;20036;-43
2022/07/15 02:00:48;;;;;;;6.85;1.60;;;12.40;99.90;;;;;;5074474;28;20043;-45
2022/07/15 02:03:14;;;;;;;9.00;1.90;;;13.90;99.90;;;;;;5072820;28;20523;-42
2022/07/15 02:05:40;;;;;;;7.82;1.40;;;12.60;99.90;;;;;;5074966;28;20120;-44
2022/07/15 02:08:06;;;;;;;10.68;1.90;;;12.30;99.90;;;;;;5075052;28;20047;-42
2022/07/15 02:10:40;;;;;;;11.35;1.38;;;12.30;99.90;;;;;;5073624;28;20059;-43
2022/07/15 02:13:08;;;;;;;9.60;1.33;;;12.70;99.90;;;;;;5078674;28;20052;-43
2022/07/15 02:15:33;;;;;;;10.63;1.50;;;12.40;99.90;;;;;;5079035;28;20106;-43
2022/07/15 02:17:59;;;;;;;6.88;1.35;;;13.10;99.90;;;;;;5077220;28;20909;-43
2022/07/15 02:20:27;;;;;;;16.08;1.60;;;12.30;99.90;;;;;;5078411;28;20111;-43
2022/07/15 02:22:53;;;;;;;9.05;1.25;;;13.30;99.90;;;;;;5075838;28;20040;-43
2022/07/15 02:25:19;;;;;;;8.05;1.40;;;12.50;99.90;;;;;;5077681;28;20378;-44
2022/07/15 02:27:45;;;;;;;9.68;1.25;;;12.80;99.90;;;;;;5058233;28;20044;-43
2022/07/15 02:30:13;;;;;;;7.40;1.30;;;13.30;99.90;;;;;;5076730;28;20066;-43
2022/07/15 02:32:38;;;;;;;7.78;1.35;;;12.00;99.90;;;;;;5076825;28;20044;-42
2022/07/15 02:35:04;;;;;;;8.68;1.25;;;12.00;99.90;;;;;;5076919;28;20032;-43
2022/07/15 02:37:31;;;;;;;8.23;1.40;;;11.90;99.90;;;;;;5077665;28;20089;-44
2022/07/15 02:39:56;;;;;;;11.40;1.42;;;12.00;99.90;;;;;;5077953;28;20036;-48
2022/07/15 02:42:22;;;;;;;8.60;1.35;;;12.10;99.90;;;;;;5076821;28;20117;-45
2022/07/15 02:44:50;;;;;;;10.02;1.60;;;13.00;99.90;;;;;;5076912;28;20040;-46
2022/07/15 02:47:16;;;;;;;8.02;1.33;;;12.00;99.90;;;;;;5076950;28;20035;-43
2022/07/15 02:49:42;;;;;;;8.50;1.40;;;13.50;99.90;;;;;;5079343;28;20033;-44
2022/07/15 02:52:08;;;;;;;7.47;1.50;;;13.40;99.90;;;;;;5078246;28;20044;-43
2022/07/15 02:54:35;;;;;;;10.50;1.17;;;12.70;99.90;;;;;;5093953;27;20054;-43
2022/07/15 02:57:01;;;;;;;9.13;1.40;;;12.30;99.90;;;;;;5076730;28;20052;-44
2022/07/15 02:59:26;;;;;;;8.18;1.45;;;12.20;99.90;;;;;;5077112;28;20681;-48
2022/07/15 03:01:55;;;;;;;6.40;1.40;;;14.40;99.90;;;;;;5058760;28;20032;-43
2022/07/15 03:04:21;;;;;;;6.00;1.05;;;12.20;99.90;;;;;;5077087;28;20089;-44
2022/07/15 03:06:46;;;;;;;6.47;1.00;;;13.10;99.90;;;;;;5075408;28;20482;-44
2022/07/15 03:09:12;;;;;;;5.18;1.15;;;12.00;99.90;;;;;;5076926;28;20039;-43
2022/07/15 03:11:37;;;;;;;7.15;1.63;;;11.90;99.90;;;;;;5076385;28;20330;-43
2022/07/15 03:14:03;;;;;;;6.13;1.17;;;11.70;99.90;;;;;;5076454;28;20043;-45
2022/07/15 03:16:29;;;;;;;8.82;1.35;;;11.80;99.90;;;;;;5075985;28;20044;-44
2022/07/15 03:18:54;;;;;;;6.30;1.00;;;11.60;99.90;;;;;;5076831;28;20063;-44
2022/07/15 03:21:21;;;;;;;9.10;1.25;;;12.00;99.90;;;;;;5076661;28;20078;-43
2022/07/15 03:23:47;;;;;;;7.05;1.13;;;11.70;99.90;;;;;;5076434;28;20090;-44
2022/07/15 03:26:16;;;;;;;6.20;1.23;;;11.40;99.90;;;;;;5077291;28;20044;-43
2022/07/15 03:28:42;;;;;;;7.00;1.20;;;11.60;99.90;;;;;;5074802;28;20067;-42
2022/07/15 03:31:08;;;;;;;6.78;1.17;;;11.40;99.90;;;;;;5076298;28;20538;-43
2022/07/15 03:33:34;;;;;;;6.57;1.75;;;11.30;99.90;;;;;;5075761;28;20032;-44
2022/07/15 03:35:59;;;;;;;10.43;1.50;;;12.50;99.90;;;;;;5076044;28;20110;-43
2022/07/15 03:38:25;;;;;;;9.60;1.08;;;10.10;99.90;;;;;;5075118;28;20130;-48
2022/07/15 03:40:51;;;;;;;3.70;0.82;;;11.30;99.90;;;;;;5077729;28;20148;-44
2022/07/15 03:43:20;;;;;;;10.20;1.58;;;12.10;99.90;;;;;;5076332;28;20051;-44
2022/07/15 03:45:46;;;;;;;6.82;1.20;;;11.40;99.90;;;;;;5076254;28;20408;-47
2022/07/15 03:48:11;;;;;;;6.05;1.42;;;13.10;99.90;;;;;;5076789;28;20031;-46
2022/07/15 03:50:39;;;;;;;5.32;1.00;;;11.60;99.90;;;;;;5077225;28;20047;-43
2022/07/15 03:53:05;;;;;;;6.57;1.20;;;11.70;99.90;;;;;;5075247;28;20089;-45
2022/07/15 03:55:30;;;;;;;4.60;1.00;;;12.40;99.90;;;;;;5077244;28;20044;-43
2022/07/15 03:57:56;;;;;;;6.50;1.50;;;11.50;99.90;;;;;;5076602;28;20051;-46
2022/07/15 04:00:22;;;;;;;7.55;0.95;;;11.40;99.90;;;;;;5075751;28;20392;-44
2022/07/15 04:02:48;;;;;;;9.45;1.08;;;11.60;99.90;;;;;;5076485;28;20050;-45
2022/07/15 04:05:14;;;;;;;5.72;0.93;;;12.20;99.90;;;;;;5076241;28;20055;-48
2022/07/15 04:07:39;;;;;;;6.78;1.08;;;11.90;99.90;;;;;;5076966;28;20044;-44
2022/07/15 04:10:08;;;;;;;7.75;0.80;;;11.80;99.90;;;;;;5076147;28;20171;-44
2022/07/15 04:12:33;;;;;;;4.93;0.73;;;12.00;99.90;;;;;;5076656;28;20036;-44
2022/07/15 04:14:59;;;;;;;5.57;0.80;;;12.10;99.90;;;;;;5076361;28;20051;-43
2022/07/15 04:17:26;;;;;;;5.82;1.08;;;12.10;99.90;;;;;;5076406;28;20040;-46
2022/07/15 04:19:52;;;;;;;5.50;0.90;;;12.10;99.90;;;;;;5077100;28;20484;-43
2022/07/15 04:22:18;;;;;;;7.20;1.15;;;14.10;99.90;;;;;;5076400;28;20097;-44
2022/07/15 04:24:43;;;;;;;3.70;0.70;;;12.20;99.90;;;;;;5076065;28;20042;-48
2022/07/15 04:27:09;;;;;;;5.82;0.95;;;12.10;99.90;;;;;;5074226;28;20043;-47
2022/07/15 04:29:35;;;;;;;1.63;0.60;;;12.30;99.90;;;;;;5075831;28;20089;-45
2022/07/15 04:32:01;;;;;;;7.70;1.05;;;12.20;99.90;;;;;;5076642;28;20061;-43
2022/07/15 04:34:27;;;;;;;3.33;0.90;;;12.50;99.90;;;;;;5074430;28;20040;-42
2022/07/15 04:36:53;;;;;;;5.28;1.15;;;14.30;99.90;;;;;;5075182;28;20066;-46
2022/07/15 04:39:18;;;;;;;4.20;0.93;;;12.50;99.90;;;;;;5074929;28;20036;-45
2022/07/15 04:41:50;;;;;;;7.10;0.90;;;12.30;99.90;;;;;;5074760;28;20040;-46
2022/07/15 04:44:16;;;;;;;3.75;0.98;;;12.40;99.90;;;;;;5075313;28;20048;-46
2022/07/15 04:46:41;;;;;;;7.93;1.30;;;12.40;99.90;;;;;;5075833;28;20036;-48
2022/07/15 04:51:51;;;;;;;10.15;1.33;;;12.70;99.90;;;;;;5075653;28;20040;-48
2022/07/15 04:54:19;;;;;;;3.55;0.82;;;12.70;99.90;;;;;;5075282;28;20168;-48
2022/07/15 04:56:44;;;;;;;6.25;0.95;;;13.00;99.90;;;;;;5074665;28;20070;-45
2022/07/15 04:59:12;;;;;;;3.45;0.88;;;13.40;99.90;;;;;;5076110;28;20067;-49
2022/07/15 05:01:37;;;;;;;7.95;1.00;;;12.50;99.90;;;;;;5075060;28;21016;-46
2022/07/15 05:04:03;;;;;;;6.55;1.00;;;13.50;99.90;;;;;;5074535;28;20036;-47
2022/07/15 05:06:30;;;;;;;7.47;1.35;;;12.60;99.90;;;;;;5074847;28;20077;-47
2022/07/15 05:08:56;;;;;;;5.15;1.30;;;12.30;99.90;;;;;;5075498;28;20105;-48
2022/07/15 05:11:22;;;;;;;4.60;1.15;;;12.60;99.90;;;;;;5075544;28;20039;-47
2022/07/15 05:13:49;;;;;;;4.20;1.20;;;12.60;99.90;;;;;;5075187;28;20042;-48
2022/07/15 05:16:15;;;;;;;5.72;1.08;;;13.30;99.90;;;;;;5073843;28;20051;-48
2022/07/15 05:18:41;;;;;;;11.27;2.03;;;12.90;99.90;;;;;;5074803;28;20032;-47
2022/07/15 05:21:08;;;;;;;5.57;1.10;;;13.90;99.90;;;;;;5076369;28;20036;-48
2022/07/15 05:23:34;;;;;;;8.05;1.10;;;13.40;99.90;;;;;;5075285;28;20460;-48
2022/07/15 05:26:00;;;;;;;3.20;0.90;;;12.80;99.90;;;;;;5074951;28;20040;-46
2022/07/15 05:28:25;;;;;;;5.05;1.40;;;13.10;99.90;;;;;;5075115;28;20032;-48
2022/07/15 05:30:51;;;;;;;8.57;0.90;;;13.10;99.90;;;;;;5075321;28;20040;-49
2022/07/15 05:33:17;;;;;;;7.65;1.35;;;13.80;99.90;;;;;;5075243;28;20058;-48
2022/07/15 05:35:43;;;;;;;4.53;1.20;;;14.40;99.90;;;;;;5075185;28;20044;-48
2022/07/15 05:38:09;;;;;;;5.72;1.00;;;15.10;99.90;;;;;;5074225;28;20147;-45
2022/07/15 05:40:35;;;;;;;3.65;0.70;;;14.10;99.90;;;;;;5054892;28;20131;-46
2022/07/15 05:43:01;;;;;;;5.63;1.00;;;13.80;99.90;;;;;;5075406;28;20047;-47
2022/07/15 05:45:26;;;;;;;3.50;0.70;;;13.60;99.90;;;;;;5073251;28;20040;-44
2022/07/15 05:47:52;;;;;;;7.28;0.90;;;14.50;99.90;;;;;;5078063;28;20051;-48
2022/07/15 05:50:20;;;;;;;5.78;0.85;;;14.80;99.90;;;;;;5079443;28;20908;-46
2022/07/15 05:52:46;;;;;;;5.05;1.08;;;16.10;99.90;;;;;;5077885;28;20142;-49
2022/07/15 05:55:12;;;;;;;3.08;0.65;;;14.00;99.90;;;;;;5079476;28;20079;-47
2022/07/15 05:57:41;;;;;;;2.13;0.50;;;14.20;99.90;;;;;;5077786;28;20032;-45
2022/07/15 06:00:08;;;;;;;3.53;0.57;;;14.90;99.90;;;;;;5077712;28;20036;-47
2022/07/15 06:02:34;;;;;;;2.95;0.57;;;14.10;99.90;;;;;;5078069;28;20036;-48
2022/07/15 06:05:00;;;;;;;5.32;0.80;;;14.10;99.90;;;;;;5078099;28;20047;-49
2022/07/15 06:07:28;;;;;;;3.78;0.70;;;14.30;99.90;;;;;;5079025;28;20032;-49
2022/07/15 06:09:53;;;;;;;3.97;0.60;;;15.50;99.90;;;;;;5078084;28;20082;-47
2022/07/15 06:12:19;;;;;;;3.97;0.82;;;14.50;99.90;;;;;;5077286;28;20119;-45
2022/07/15 06:14:46;;;;;;;5.30;0.57;;;15.00;99.90;;;;;;5078164;28;20052;-47
2022/07/15 06:17:12;;;;;;;3.53;0.70;;;14.60;99.80;;;;;;5078409;28;20578;-47
2022/07/15 06:19:38;;;;;;;5.63;1.33;;;14.80;99.50;;;;;;5078690;28;20039;-46
2022/07/15 06:22:06;;;;;;;10.30;1.10;;;15.70;99.00;;;;;;5058643;28;20074;-48
2022/07/15 06:24:32;;;;;;;5.25;0.65;;;14.80;96.40;;;;;;5078382;28;20526;-45
2022/07/15 06:26:58;;;;;;;2.65;0.60;;;15.00;95.10;;;;;;5077495;28;20032;-46
2022/07/15 06:29:24;;;;;;;5.50;0.60;;;16.00;95.90;;;;;;5078341;28;20055;-46
2022/07/15 06:31:49;;;;;;;7.30;0.98;;;15.50;94.10;;;;;;5075859;28;20036;-47
2022/07/15 06:34:15;;;;;;;2.63;0.50;;;16.20;90.70;;;;;;5077278;28;20036;-46
2022/07/15 06:36:43;;;;;;;10.10;0.80;;;18.30;66.20;;;;;;5077223;28;20503;-46
2022/07/15 06:39:09;;;;;;;3.53;0.40;;;17.00;36.10;;;;;;5078179;28;20112;-47
2022/07/15 06:41:34;;;;;;;3.83;0.63;;;16.00;34.20;;;;;;5076824;28;20055;-47
2022/07/15 06:44:05;;;;;;;8.73;0.98;;;16.10;33.20;;;;;;5078097;28;20040;-44
2022/07/15 06:46:32;;;;;;;8.88;0.90;;;16.10;27.40;;;;;;5076898;28;20035;-48
2022/07/15 06:48:58;;;;;;;4.85;0.90;;;16.30;30.20;;;;;;5077525;28;20725;-47
2022/07/15 06:51:24;;;;;;;3.58;1.17;;;17.30;33.90;;;;;;5079131;28;20032;-46
2022/07/15 06:53:50;;;;;;;7.05;1.00;;;16.50;18.30;;;;;;5076808;28;20064;-47
2022/07/15 06:56:15;;;;;;;4.80;0.77;;;17.00;19.00;;;;;;5077248;28;20157;-44
2022/07/15 06:58:41;;;;;;;3.63;0.90;;;18.40;9.10;;;;;;5076164;28;20084;-47
2022/07/15 07:01:07;;;;;;;5.38;0.90;;;17.80;1.00;;;;;;5077008;28;20050;-48
2022/07/15 07:03:33;;;;;;;4.63;0.77;;;18.80;1.00;;;;;;5077494;28;20048;-49
2022/07/15 07:05:59;;;;;;;4.07;0.70;;;19.90;1.00;;;;;;5076752;28;20102;-47
2022/07/15 07:08:28;;;;;;;3.03;0.60;;;20.40;99.90;;;;;;5076478;28;20116;-49
2022/07/15 07:10:54;;;;;;;6.00;0.73;;;20.20;62.20;;;;;;5077193;28;20048;-49
2022/07/15 07:13:19;;;;;;;3.47;0.55;;;19.70;6.50;;;;;;5077041;28;20063;-45
2022/07/15 07:15:49;;;;;;;5.03;0.88;;;20.80;32.40;;;;;;5076847;28;20032;-47
2022/07/15 07:18:14;;;;;;;4.18;0.70;;;19.50;1.00;;;;;;5076684;28;20496;-46
2022/07/15 07:20:43;;;;;;;12.23;0.77;;;19.70;84.20;;;;;;5077313;28;20068;-48
2022/07/15 07:23:10;;;;;;;6.45;0.60;;;20.90;97.10;;;;;;5076676;28;20210;-49
2022/07/15 07:25:36;;;;;;;5.75;0.70;;;22.20;99.90;;;;;;5076943;28;20504;-48
2022/07/15 07:28:03;;;;;;;3.42;0.50;;;23.80;1.00;;;;;;5077035;28;20089;-49
2022/07/15 07:30:32;;;;;;;3.35;0.55;;;24.70;99.90;;;;;;5077384;28;20063;-45
2022/07/15 07:32:58;;;;;;;2.75;0.50;;;24.80;99.90;;;;;;5058371;28;20404;-46
2022/07/15 07:35:25;;;;;;;4.68;0.60;;;25.20;99.90;;;;;;5058373;28;20040;-47
2022/07/15 07:37:51;;;;;;;4.32;0.60;;;24.70;1.00;;;;;;5076094;28;20131;-48
2022/07/15 07:40:17;;;;;;;2.60;0.40;;;23.90;99.90;;;;;;5077023;28;20165;-48
2022/07/15 07:42:47;;;;;;;3.15;0.50;;;24.10;1.00;;;;;;5076344;28;20143;-47
2022/07/15 07:45:14;;;;;;;4.23;0.70;;;24.70;99.90;;;;;;5075701;28;20067;-48
2022/07/15 07:47:40;;;;;;;3.78;0.75;;;25.70;99.90;;;;;;5076478;28;20070;-47
2022/07/15 07:50:07;;;;;;;3.30;0.60;;;25.60;99.90;;;;;;5076892;28;20058;-48
2022/07/15 07:52:33;;;;;;;4.78;0.60;;;25.40;99.90;;;;;;5075118;28;20044;-48
2022/07/15 07:54:59;;;;;;;3.13;0.50;;;24.30;12.40;;;;;;5075290;28;20097;-45
2022/07/15 07:57:26;;;;;;;4.05;0.43;;;23.70;11.60;;;;;;5077262;28;20031;-47
2022/07/15 07:59:52;;;;;;;1.92;0.60;;;24.00;1.00;;;;;;5076294;28;20036;-47
2022/07/15 08:02:17;;;;;;;2.15;0.30;;;25.30;11.40;;;;;;5057509;28;20047;-48
2022/07/15 08:04:43;;;;;;;5.25;0.50;;;25.10;1.00;;;;;;5075040;28;20105;-45
2022/07/15 08:07:11;;;;;;;5.15;0.80;;;24.40;1.00;;;;;;5074905;28;20048;-46
2022/07/15 08:09:36;;;;;;;3.75;0.50;;;23.90;1.00;;;;;;5075579;28;20508;-48
2022/07/15 08:12:04;;;;;;;2.22;0.30;;;22.00;1.00;;;;;;5058266;28;20277;-48
2022/07/15 08:14:30;;;;;;;2.25;0.47;;;22.30;1.00;;;;;;5075695;28;20134;-45
2022/07/15 08:16:55;;;;;;;2.88;0.50;;;22.10;1.00;;;;;;5056779;28;20042;-47
2022/07/15 08:19:21;;;;;;;3.78;0.88;;;23.00;1.00;;;;;;5076510;28;20478;-47
2022/07/15 08:21:47;;;;;;;1.75;0.60;;;23.60;1.00;;;;;;5076744;28;20052;-47
2022/07/15 08:24:13;;;;;;;1.42;0.52;;;24.20;1.00;;;;;;5074782;28;20082;-46
2022/07/15 08:26:41;;;;;;;1.65;0.32;;;25.00;1.00;;;;;;5076067;28;20043;-49
2022/07/15 08:29:06;;;;;;;1.52;0.30;;;25.30;99.90;;;;;;5076377;28;20051;-44
2022/07/15 08:31:33;;;;;;;3.45;0.40;;;25.50;99.90;;;;;;5077182;28;20032;-45
2022/07/15 08:34:03;;;;;;;5.95;0.50;;;25.30;99.90;;;;;;5075703;28;20885;-44
2022/07/15 08:36:28;;;;;;;5.03;0.50;;;25.20;99.90;;;;;;5075126;28;20048;-46
2022/07/15 08:38:54;;;;;;;4.57;0.70;;;24.70;99.90;;;;;;5075372;28;20039;-49
2022/07/15 08:41:20;;;;;;;1.95;0.40;;;24.30;99.90;;;;;;5056413;28;20052;-43
2022/07/15 08:43:46;;;;;;;1.95;0.55;;;23.90;99.90;;;;;;5074411;28;20379;-44
2022/07/15 08:46:13;;;;;;;4.95;0.80;;;23.80;99.90;;;;;;5075923;28;20473;-46
2022/07/15 08:48:41;;;;;;;3.85;0.52;;;23.50;99.90;;;;;;5075312;28;20228;-44
2022/07/15 08:51:09;;;;;;;3.60;0.75;;;23.50;99.90;;;;;;5074866;28;20052;-43
2022/07/15 08:53:35;;;;;;;3.72;0.60;;;22.80;99.90;;;;;;5074992;28;20374;-43
2022/07/15 08:56:02;;;;;;;3.58;0.45;;;22.50;99.90;;;;;;5075480;28;20122;-45
2022/07/15 08:58:28;;;;;;;2.53;0.50;;;21.30;99.90;;;;;;5074236;28;20039;-43
2022/07/15 09:00:54;;;;;;;1.13;0.40;;;23.10;99.90;;;;;;5075821;28;20047;-44
2022/07/15 09:03:20;;;;;;;4.85;0.50;;;21.40;99.90;;;;;;5075698;28;20047;-45
2022/07/15 09:05:46;;;;;;;2.38;0.68;;;21.60;99.90;;;;;;5074875;28;20043;-45
2022/07/15 09:08:14;;;;;;;1.65;0.50;;;21.40;99.90;;;;;;5074272;28;20118;-43
2022/07/15 09:10:58;;;;;;;3.38;0.90;;;20.90;99.90;;;;;;5074230;28;20042;-44
2022/07/15 09:13:40;;;;;;;4.93;0.50;;;20.20;99.90;;;;;;5075852;28;20037;-44
2022/07/15 09:16:19;;;;;;;4.43;0.50;;;21.00;99.90;;;;;;5073291;28;20119;-43
2022/07/15 09:18:46;;;;;;;2.38;0.40;;;19.60;1.00;;;;;;5075631;28;20052;-44
2022/07/15 09:21:15;;;;;;;2.65;0.40;;;19.50;1.00;;;;;;5076001;28;20036;-43
2022/07/15 09:23:41;;;;;;;2.60;0.30;;;19.00;1.00;;;;;;5079638;28;20039;-43
2022/07/15 09:26:26;;;;;;;3.25;0.50;;;18.90;1.00;;;;;;5078682;28;20461;-45
2022/07/15 09:28:53;;;;;;;3.65;0.45;;;19.00;1.00;;;;;;5079388;28;20429;-45
2022/07/15 09:34:21;;;;;;;;;;;18.50;2.20;;;;;;5078110;28;20055;-43
2022/07/15 09:36:52;;;;;;;2.85;0.43;;;18.50;87.30;;;;;;5078803;28;19934;-44
2022/07/15 09:39:19;;;;;;;5.00;0.80;;;18.40;91.30;;;;;;5078829;28;20389;-44
2022/07/15 09:41:46;;;;;;;3.97;0.75;;;19.40;99.90;;;;;;5077883;28;20539;-43
2022/07/15 09:44:13;;;;;;;5.82;0.75;;;19.20;99.90;;;;;;5079954;28;20044;-45
2022/07/15 09:46:41;;;;;;;3.55;0.38;;;18.40;99.90;;;;;;5079869;28;21178;-44
2022/07/15 09:49:08;;;;;;;1.42;0.30;;;20.40;99.90;;;;;;5078860;28;20119;-44
2022/07/15 09:51:49;;;;;;;2.28;0.52;;;18.40;99.90;;;;;;5079196;28;20147;-47
2022/07/15 09:54:16;;;;;;;3.97;0.88;;;18.50;99.90;;;;;;5078225;28;20086;-47
2022/07/15 09:56:42;;;;;;;2.03;0.40;;;19.90;99.90;;;;;;5078556;28;20040;-42
2022/07/15 09:59:08;;;;;;;2.28;0.50;;;20.50;99.90;;;;;;5060326;28;20378;-45
2022/07/15 10:01:36;;;;;;;5.45;0.93;;;21.90;99.90;;;;;;5077683;28;20094;-44
2022/07/15 10:04:02;;;;;;;6.25;0.60;;;19.50;99.90;;;;;;5077194;28;20607;-44
2022/07/15 10:06:31;;;;;;;4.45;0.60;;;19.50;99.90;;;;;;5078263;28;20040;-46
2022/07/15 10:08:58;;;;;;;2.85;0.60;;;19.30;99.90;;;;;;5078716;28;20434;-46
2022/07/15 10:11:23;;;;;;;2.47;0.60;;;19.20;99.90;;;;;;5077346;28;20035;-44
2022/07/15 10:14:26;;;;;;;1.50;0.38;;;20.90;99.90;;;;;;5078149;28;20934;-45
2022/07/15 10:17:13;;;;;;;2.40;0.50;;;18.90;99.90;;;;;;5077456;28;20424;-44
2022/07/15 10:20:35;;;;;;;3.33;0.50;;;18.80;99.90;;;;;;5078725;28;20036;-48
2022/07/15 10:23:34;;;;;;;10.68;1.75;;;18.70;99.90;;;;;;5078561;28;20052;-47
2022/07/15 10:26:22;;;;;;;3.00;0.75;;;18.60;99.90;;;;;;5078723;28;20059;-44
2022/07/15 10:29:05;;;;;;;3.28;0.52;;;18.70;99.90;;;;;;4994969;28;20084;-47
2022/07/15 10:31:34;;;;;;;1.08;0.50;;;21.00;99.90;;;;;;4995209;28;20145;-46
2022/07/15 10:34:02;;;;;;;3.47;0.68;;;20.20;99.90;;;;;;4995197;28;20057;-44
2022/07/15 10:36:46;;;;;;;2.28;0.40;;;19.40;99.90;;;;;;4994176;28;20232;-44
2022/07/15 10:39:16;;;;;;;3.58;0.60;;;19.50;99.90;;;;;;4994661;28;20422;-44
2022/07/15 10:42:02;;;;;;;3.33;0.52;;;19.40;99.90;;;;;;4994134;28;20469;-43
2022/07/15 10:44:33;;;;;;;1.70;0.50;;;21.90;99.90;;;;;;4979670;28;21290;-50
2022/07/15 10:47:14;;;;;;;4.38;0.40;;;20.40;99.90;;;;;;4993699;28;21674;-48
2022/07/15 10:49:40;;;;;;;1.58;0.40;;;21.10;99.90;;;;;;4994867;28;21229;-48
2022/07/15 10:52:29;;;;;;;1.80;0.40;;;21.30;99.90;;;;;;4994836;28;20645;-49
2022/07/15 10:54:54;;;;;;;2.75;0.38;;;21.80;99.90;;;;;;4993941;28;20045;-53
2022/07/15 10:57:41;;;;;;;2.13;0.50;;;21.70;99.90;;;;;;4981272;28;20054;-49
2022/07/15 11:00:22;;;;;;;1.65;0.43;;;22.00;99.90;;;;;;4995232;28;20096;-49
2022/07/15 11:03:14;;;;;;;3.20;0.53;;;22.10;99.90;;;;;;4995003;28;20418;-50
2022/07/15 11:05:48;;;;;;;;;;;22.10;99.90;;;;;;5027381;28;20962;-51
2022/07/15 11:08:33;;;;;;;2.45;0.57;;;22.00;99.90;;;;;;5077316;28;19971;-48
2022/07/15 11:11:43;;;;;;;2.45;0.35;;;21.80;99.90;;;;;;5076592;28;20447;-49
2022/07/15 11:14:46;;;;;;;2.97;0.60;;;21.30;99.90;;;;;;4976788;28;20047;-47
2022/07/15 11:17:16;;;;;;;4.60;0.65;;;20.90;99.90;;;;;;4980165;28;20074;-51
2022/07/15 11:19:47;;;;;;;4.73;0.50;;;20.90;99.90;;;;;;4979445;28;20039;-52
2022/07/15 11:22:12;;;;;;;3.45;0.38;;;20.50;99.90;;;;;;4977000;28;20125;-54
2022/07/15 11:24:38;;;;;;;2.92;0.70;;;20.30;99.90;;;;;;4978655;28;22411;-51
2022/07/15 11:27:04;;;;;;;2.33;0.43;;;20.30;99.90;;;;;;4978886;28;20404;-49
2022/07/15 11:29:43;;;;;;;3.40;0.52;;;20.40;99.90;;;;;;4976617;28;20047;-51
2022/07/15 11:32:09;;;;;;;2.72;0.50;;;20.50;99.90;;;;;;4995175;28;20044;-48
2022/07/15 11:34:45;;;;;;;1.30;0.40;;;20.60;99.90;;;;;;4963111;28;20046;-51
2022/07/15 11:37:11;;;;;;;2.15;0.50;;;23.50;99.90;;;;;;4979393;28;20057;-53
2022/07/15 11:39:37;;;;;;;4.28;1.10;;;21.50;99.90;;;;;;4978706;28;20042;-50
2022/07/15 11:44:49;;;;;;;6.60;0.60;;;21.80;99.90;;;;;;4980333;28;20061;-48
2022/07/15 11:47:15;;;;;;;3.15;0.47;;;21.50;99.90;;;;;;4996663;28;20052;-49
2022/07/15 11:49:44;;;;;;;2.63;0.47;;;21.80;99.90;;;;;;5075535;28;20047;-49
2022/07/15 11:52:23;;;;;;;2.58;0.50;;;21.10;99.90;;;;;;5076794;28;20032;-49
2022/07/15 11:54:49;;;;;;;3.45;0.50;;;20.90;99.90;;;;;;5058759;28;20467;-48
2022/07/15 11:57:16;;;;;;;2.63;0.70;;;20.80;99.90;;;;;;5076555;28;20071;-49
2022/07/15 11:59:55;;;;;;;3.70;0.40;;;20.70;99.90;;;;;;5075582;28;20119;-53
2022/07/15 12:02:25;;;;;;;3.03;0.68;;;22.60;99.90;;;;;;5075120;28;20044;-50
2022/07/15 12:04:51;;;;;;;4.47;0.50;;;21.30;99.90;;;;;;5076410;28;20075;-52
2022/07/15 12:07:17;;;;;;;2.55;0.30;;;20.40;99.90;;;;;;5076539;28;20050;-53
2022/07/15 12:09:51;;;;;;;2.70;0.50;;;20.00;99.90;;;;;;5075254;28;20147;-50
2022/07/15 12:12:17;;;;;;;5.65;0.80;;;19.90;99.90;;;;;;5075831;28;20554;-48
2022/07/15 12:14:50;;;;;;;3.00;0.55;;;19.60;99.90;;;;;;5056447;28;20303;-53
2022/07/15 12:17:16;;;;;;;4.72;0.60;;;19.60;99.90;;;;;;5075762;28;20047;-50
2022/07/15 12:19:47;;;;;;;3.75;0.60;;;19.30;99.90;;;;;;5073816;28;20032;-49
2022/07/15 12:22:13;;;;;;;2.28;0.55;;;19.50;99.90;;;;;;5075131;28;20058;-49
2022/07/15 12:24:46;;;;;;;5.72;0.93;;;19.40;99.90;;;;;;5076490;28;20562;-49
2022/07/15 12:27:13;;;;;;;5.40;1.00;;;19.50;99.90;;;;;;5075471;28;20032;-49
2022/07/15 12:29:40;;;;;;;5.20;0.70;;;19.40;99.90;;;;;;5075023;28;20046;-47
2022/07/15 12:32:08;;;;;;;3.13;0.55;;;19.60;99.90;;;;;;5075356;28;20512;-50
2022/07/15 12:34:46;;;;;;;5.18;0.80;;;20.60;99.90;;;;;;5075439;28;20040;-48
2022/07/15 12:37:24;;;;;;;3.97;0.68;;;19.40;99.90;;;;;;5075580;28;25144;-50
2022/07/15 12:39:58;;;;;;;5.53;0.90;;;19.50;99.90;;;;;;5075115;28;20043;-47
2022/07/15 12:42:26;;;;;;;2.97;0.60;;;19.50;99.90;;;;;;5073889;28;20047;-52
2022/07/15 12:45:08;;;;;;;6.18;0.90;;;19.20;99.90;;;;;;5056391;28;20131;-51
2022/07/15 12:47:34;;;;;;;4.40;0.85;;;19.10;99.90;;;;;;5075454;28;20036;-53
2022/07/15 12:50:00;;;;;;;4.97;0.70;;;18.80;99.90;;;;;;5075184;28;20386;-48
2022/07/15 12:52:36;;;;;;;4.18;0.80;;;18.60;99.90;;;;;;5076393;28;20036;-48
2022/07/15 12:55:16;;;;;;;2.60;0.65;;;18.50;99.90;;;;;;5074499;28;20047;-49
2022/07/15 12:57:42;;;;;;;4.90;0.75;;;18.30;1.00;;;;;;5074324;28;20085;-48
2022/07/15 13:00:14;;;;;;;4.05;0.80;;;18.20;1.00;;;;;;5075026;28;20089;-49
2022/07/15 13:03:16;;;;;;;6.63;0.80;;;18.30;99.90;;;;;;5056771;28;20104;-48
2022/07/15 13:05:43;;;;;;;3.17;0.80;;;17.70;99.90;;;;;;5013284;28;20100;-48
2022/07/15 13:08:14;;;;;;;2.72;0.82;;;17.90;25.30;;;;;;5011407;28;20045;-47